Motoplanete

Classement HJC Helmets Grand Prix de France Moto2 2015

Course disputée sur le circuit de Le Mans

Position Numéro Pilote Team Temps Tours Points Départ
1 12 Thomas Luthi Derendinger Racing Interwetten 12:30:11 26 25 6
2 1 Tito Rabat Eg 0,0 Marc Vds 12:59:38 26 20 4
3 5 Johann Zarco Ajo Motorsport 13:32:51 26 16 3
4 22 Sam Lowes Speed Up 13:38:07 26 13 2
5 21 Franco Morbidelli Italtrans Racing Team 16:31:43 26 11 12
6 60 Julian Simon QMMF Racing Team 16:34:52 26 10 9
7 30 Takaaki Nakagami Idemitsu Honda Team Asia 16:37:36 26 9 5
8 19 Xavier Simeon Federal Oil Gresini Moto2 16:42:26 26 8 8
9 55 Hafizh Syahrin Petronas Raceline Malaysia 17:50:54 26 7 13
10 77 Dominique Aegerter Technomag Racing Interwetten 17:55:42 26 6 19
11 95 Anthony West QMMF Racing Team 20:41:29 26 5 17
12 4 Randy Krummenacher Jir Racing Team 20:44:17 26 4 10
13 23 Marcel Schrotter Tech 3 20:53:51 26 3 14
14 11 Sandro Cortese Dynavolt Intact Gp 21:01:42 26 2 18
15 49 Alex Pons Agr Team 21:41:48 26 1 16
16 88 Ricard Cardus Tech 3 21:50:15 26 0 25
17 40 Alex Rins Paginas Amarillas Hp 40 23:08:24 26 0 1
18 3 Simone Corsi Athinà Forward Racing 23:20:12 26 0 20
19 25 Azlan Shah Idemitsu Honda Team Asia 00:34:30 26 0 24
20 70 Robin Mulhauser Technomag Racing Interwetten 04:32:33 26 0 26
21 7 Lorenzo Baldassarri Athinà Forward Racing 07:46:50 26 0 22
22 10 Thitipong Warokorn Aph Ptt The Pizza Sag 09:57:38 26 0 27
23 66 Florian Alt Octo Iodaracing Team 10:04:17 26 0 28
24 2 Jesko Raffin Sports-millions-emwe-sag 10:07:28 26 0 29
25 51 Zaqhwan Zaidi Jpmoto Malaysia 14:23:23 26 0 30
26 20 Louis Bulle Promoto Sport 01:00:52 25 0 31
27 39 Luis Salom Paginas Amarillas Hp 40 09:37:30 24 0 7
28 36 Mika Kallio Italtrans Racing Team 19:51:48 12 0 11
29 94 Jonas Folger Agr Team 08:48:04 9 0 15
30 73 Alex Marquez Eg 0,0 Marc Vds 18:06:35 4 0 21
31 96 Louis Rossi Tasca Racing Scuderia Moto2 17:52:29 4 0 23